createdAt,value
2018-09-05T00:47:58.803Z,75.62
2018-09-05T00:53:02.160Z,75.70
2018-09-05T00:58:05.559Z,75.74
2018-09-05T02:35:13.507Z,76.30
2018-09-05T02:40:17.685Z,76.53
2018-09-05T03:48:37.720Z,78.03
2018-09-05T03:53:41.048Z,77.95
2018-09-05T03:58:44.375Z,78.29
2018-09-05T04:32:33.796Z,77.82
2018-09-05T04:37:37.140Z,78.20
2018-09-05T04:42:41.536Z,78.72
2018-09-05T04:47:44.868Z,79.04
2018-09-05T04:52:48.257Z,79.21
2018-09-05T04:57:52.337Z,78.81
2018-09-05T05:02:56.464Z,78.57
2018-09-05T05:08:00.581Z,78.31
2018-09-05T05:13:03.921Z,78.01
2018-09-05T05:18:08.027Z,77.60
2018-09-05T05:23:11.356Z,77.21
2018-09-05T05:28:15.446Z,76.82
2018-09-05T05:33:18.777Z,76.58
2018-09-05T05:38:22.110Z,76.35
2018-09-05T05:43:26.204Z,76.38
2018-09-05T05:48:29.527Z,76.28
2018-09-05T05:53:32.858Z,75.98
2018-09-05T05:58:36.178Z,75.93
2018-09-05T06:03:39.507Z,75.87
2018-09-05T06:08:42.833Z,76.10
2018-09-05T06:13:46.158Z,75.56
2018-09-05T06:18:49.485Z,75.55
2018-09-05T06:23:52.839Z,75.05
2018-09-05T06:28:56.158Z,74.77
2018-09-05T07:02:45.403Z,73.18
2018-09-05T07:07:48.743Z,73.06
2018-09-05T07:12:52.084Z,72.86
2018-09-05T08:03:57.584Z,71.80
2018-09-05T08:09:00.910Z,71.55
2018-09-05T08:14:04.241Z,71.30
2018-09-05T09:05:08.678Z,70.00
2018-09-05T09:10:11.955Z,69.29
2018-09-05T10:01:16.812Z,66.76
2018-09-05T10:06:20.175Z,66.13
2018-09-05T10:11:23.505Z,65.94
2018-09-05T11:02:28.197Z,64.01
2018-09-05T11:07:31.552Z,62.38
2018-09-05T11:12:35.655Z,62.59
2018-09-05T12:03:41.019Z,57.24
2018-09-05T12:08:44.384Z,57.21
2018-09-05T12:13:47.722Z,56.38
2018-09-05T13:04:51.903Z,47.58
2018-09-05T13:09:55.206Z,47.70
2018-09-05T13:14:58.559Z,47.39
2018-09-05T14:05:55.689Z,43.72
2018-09-05T14:10:59.023Z,42.30
2018-09-05T14:50:33.905Z,38.35
2018-09-05T14:55:37.255Z,39.01
2018-09-05T15:35:10.978Z,37.77
2018-09-05T15:40:14.315Z,37.36
2018-09-05T15:45:17.651Z,38.53
2018-09-05T15:50:21.578Z,38.38
2018-09-05T15:55:24.915Z,38.55
2018-09-05T16:00:29.031Z,38.71
2018-09-05T16:05:32.391Z,38.14
2018-09-05T16:10:35.731Z,38.22
2018-09-05T16:15:39.290Z,38.59
2018-09-05T16:20:42.420Z,39.51
2018-09-05T16:25:46.526Z,39.78
2018-09-05T16:30:50.019Z,39.84
2018-09-05T16:36:00.515Z,39.58
2018-09-05T16:41:03.814Z,40.00
2018-09-05T16:46:07.151Z,40.00
2018-09-05T16:51:11.257Z,40.25
2018-09-05T16:56:27.810Z,40.88
2018-09-05T17:01:31.919Z,41.32
2018-09-05T17:06:39.113Z,41.94
2018-09-05T17:11:42.751Z,42.78
2018-09-05T17:16:46.124Z,44.13
2018-09-05T17:21:49.474Z,44.73
2018-09-05T17:26:52.976Z,45.36
2018-09-05T17:31:56.758Z,46.15
2018-09-05T17:37:00.166Z,46.92
2018-09-05T17:42:03.523Z,47.50
2018-09-05T17:47:06.886Z,47.98
2018-09-05T17:52:10.228Z,48.71
2018-09-05T17:57:13.797Z,49.27
2018-09-05T18:02:17.167Z,49.66
2018-09-05T18:07:20.557Z,50.18
2018-09-05T18:12:23.889Z,50.97
2018-09-05T18:17:27.292Z,50.96
2018-09-05T18:22:30.637Z,51.19
2018-09-05T18:27:33.990Z,51.65
2018-09-05T18:32:38.110Z,51.89
2018-09-05T18:37:42.238Z,52.32
2018-09-05T18:42:46.354Z,52.66
2018-09-05T18:47:49.697Z,53.04
2018-09-05T18:52:56.525Z,53.29
2018-09-05T18:58:06.630Z,53.75
2018-09-05T19:03:34.498Z,54.54
2018-09-05T19:08:40.456Z,54.97
2018-09-05T19:13:47.176Z,55.51
2018-09-05T19:18:54.504Z,56.56
2018-09-05T19:23:57.855Z,56.73
2018-09-05T19:29:01.282Z,56.71
2018-09-05T19:34:05.169Z,57.40
2018-09-05T19:39:08.547Z,57.52
2018-09-05T19:44:15.266Z,58.27
2018-09-05T19:49:19.384Z,58.19
2018-09-05T19:54:22.775Z,58.36
2018-09-05T19:59:26.146Z,58.59
2018-09-05T20:04:29.495Z,59.59
2018-09-05T20:09:32.939Z,59.16
2018-09-05T20:14:36.319Z,59.36
2018-09-05T20:19:39.639Z,59.44
2018-09-05T20:24:43.103Z,59.46
2018-09-05T20:29:47.591Z,59.83
2018-09-05T20:34:51.983Z,60.35
2018-09-05T20:39:56.099Z,60.22
2018-09-05T20:44:59.459Z,60.58
2018-09-05T20:50:02.789Z,60.94
2018-09-05T20:55:07.148Z,61.13
2018-09-05T21:00:10.502Z,61.36
2018-09-05T21:05:13.940Z,61.46
2018-09-05T21:10:17.280Z,61.64
2018-09-05T21:15:20.626Z,62.02
2018-09-05T21:20:23.967Z,62.18
2018-09-05T21:25:27.302Z,62.27
2018-09-05T21:30:30.851Z,62.42
2018-09-05T21:35:34.200Z,62.49
2018-09-05T21:40:37.538Z,62.58
2018-09-05T21:45:40.867Z,62.45
2018-09-05T21:50:44.206Z,62.46
2018-09-05T21:55:47.557Z,62.66
2018-09-05T22:00:50.891Z,62.66
2018-09-05T22:05:57.601Z,62.64
2018-09-05T22:11:00.947Z,62.73
2018-09-05T22:16:13.509Z,62.68
2018-09-05T22:21:16.844Z,62.80
2018-09-05T22:26:52.211Z,62.86
2018-09-05T22:31:55.545Z,62.87
2018-09-05T22:36:58.887Z,63.18
2018-09-05T22:42:02.987Z,63.37
2018-09-05T22:52:53.467Z,64.24
2018-09-05T22:58:02.283Z,64.35
2018-09-05T23:03:05.618Z,64.19
2018-09-05T23:08:09.771Z,64.51
